sensor_id;sensor_type;location;lat;lon;timestamp;temperature;humidity
35607;DHT22;21729;58.392;15.656;2022-09-17T00:00:22;9.80;1.00
35607;DHT22;21729;58.392;15.656;2022-09-17T00:02:50;9.80;1.00
35607;DHT22;21729;58.392;15.656;2022-09-17T00:05:21;9.80;1.00
35607;DHT22;21729;58.392;15.656;2022-09-17T00:07:48;9.80;1.00
35607;DHT22;21729;58.392;15.656;2022-09-17T00:10:16;9.80;1.00
35607;DHT22;21729;58.392;15.656;2022-09-17T00:12:43;9.80;1.00
35607;DHT22;21729;58.392;15.656;2022-09-17T00:15:10;9.80;1.00
35607;DHT22;21729;58.392;15.656;2022-09-17T00:17:39;9.90;1.00
35607;DHT22;21729;58.392;15.656;2022-09-17T00:20:09;9.90;1.00
35607;DHT22;21729;58.392;15.656;2022-09-17T00:22:36;10.00;1.00
35607;DHT22;21729;58.392;15.656;2022-09-17T00:25:05;10.00;1.00
35607;DHT22;21729;58.392;15.656;2022-09-17T00:27:33;10.00;1.00
35607;DHT22;21729;58.392;15.656;2022-09-17T00:30:00;10.00;1.00
35607;DHT22;21729;58.392;15.656;2022-09-17T00:32:27;10.00;1.00
35607;DHT22;21729;58.392;15.656;2022-09-17T00:34:56;10.10;1.00
35607;DHT22;21729;58.392;15.656;2022-09-17T00:37:23;10.10;1.00
35607;DHT22;21729;58.392;15.656;2022-09-17T00:39:50;10.00;1.00
35607;DHT22;21729;58.392;15.656;2022-09-17T00:42:18;10.00;1.00
35607;DHT22;21729;58.392;15.656;2022-09-17T00:44:48;9.90;1.00
35607;DHT22;21729;58.392;15.656;2022-09-17T00:47:23;9.60;1.00
35607;DHT22;21729;58.392;15.656;2022-09-17T00:49:54;9.80;1.00
35607;DHT22;21729;58.392;15.656;2022-09-17T00:52:27;9.60;1.00
35607;DHT22;21729;58.392;15.656;2022-09-17T00:54:59;9.80;1.00
35607;DHT22;21729;58.392;15.656;2022-09-17T00:57:28;9.70;1.00
35607;DHT22;21729;58.392;15.656;2022-09-17T00:59:56;9.60;1.00
35607;DHT22;21729;58.392;15.656;2022-09-17T01:02:24;9.50;1.00
35607;DHT22;21729;58.392;15.656;2022-09-17T01:04:52;9.50;1.00
35607;DHT22;21729;58.392;15.656;2022-09-17T01:07:37;9.50;1.00
35607;DHT22;21729;58.392;15.656;2022-09-17T01:10:18;9.60;1.00
35607;DHT22;21729;58.392;15.656;2022-09-17T01:13:02;9.60;1.00
35607;DHT22;21729;58.392;15.656;2022-09-17T01:15:34;9.60;1.00
35607;DHT22;21729;58.392;15.656;2022-09-17T01:18:15;9.60;1.00
35607;DHT22;21729;58.392;15.656;2022-09-17T01:24:43;9.40;1.00
35607;DHT22;21729;58.392;15.656;2022-09-17T01:27:45;9.30;1.00
35607;DHT22;21729;58.392;15.656;2022-09-17T01:30:34;9.40;1.00
35607;DHT22;21729;58.392;15.656;2022-09-17T01:33:06;9.40;1.00
35607;DHT22;21729;58.392;15.656;2022-09-17T01:35:46;9.50;1.00
35607;DHT22;21729;58.392;15.656;2022-09-17T01:38:21;9.70;1.00
35607;DHT22;21729;58.392;15.656;2022-09-17T01:40:54;9.70;1.00
35607;DHT22;21729;58.392;15.656;2022-09-17T01:43:26;9.70;1.00
35607;DHT22;21729;58.392;15.656;2022-09-17T01:46:01;9.70;1.00
35607;DHT22;21729;58.392;15.656;2022-09-17T01:48:33;9.70;1.00
35607;DHT22;21729;58.392;15.656;2022-09-17T01:51:05;9.70;1.00
35607;DHT22;21729;58.392;15.656;2022-09-17T01:53:36;9.70;1.00
35607;DHT22;21729;58.392;15.656;2022-09-17T01:56:05;9.60;1.00
35607;DHT22;21729;58.392;15.656;2022-09-17T01:58:36;9.70;1.00
35607;DHT22;21729;58.392;15.656;2022-09-17T02:01:09;9.70;1.00
35607;DHT22;21729;58.392;15.656;2022-09-17T02:03:41;9.60;1.00
35607;DHT22;21729;58.392;15.656;2022-09-17T02:06:13;9.60;1.00
35607;DHT22;21729;58.392;15.656;2022-09-17T02:08:45;9.60;1.00
35607;DHT22;21729;58.392;15.656;2022-09-17T02:11:14;9.60;1.00
35607;DHT22;21729;58.392;15.656;2022-09-17T02:13:45;9.60;1.00
35607;DHT22;21729;58.392;15.656;2022-09-17T02:16:18;9.60;1.00
35607;DHT22;21729;58.392;15.656;2022-09-17T02:18:52;9.60;1.00
35607;DHT22;21729;58.392;15.656;2022-09-17T02:21:28;9.60;1.00
35607;DHT22;21729;58.392;15.656;2022-09-17T02:24:00;9.60;1.00
35607;DHT22;21729;58.392;15.656;2022-09-17T02:26:31;9.70;1.00
35607;DHT22;21729;58.392;15.656;2022-09-17T02:29:06;9.70;1.00
35607;DHT22;21729;58.392;15.656;2022-09-17T02:31:35;9.70;1.00
35607;DHT22;21729;58.392;15.656;2022-09-17T02:34:03;9.70;1.00
35607;DHT22;21729;58.392;15.656;2022-09-17T02:36:31;9.70;1.00
35607;DHT22;21729;58.392;15.656;2022-09-17T02:39:01;9.70;1.00
35607;DHT22;21729;58.392;15.656;2022-09-17T02:41:36;9.70;1.00
35607;DHT22;21729;58.392;15.656;2022-09-17T02:44:12;9.70;1.00
35607;DHT22;21729;58.392;15.656;2022-09-17T02:46:56;9.70;1.00
35607;DHT22;21729;58.392;15.656;2022-09-17T02:49:42;9.70;1.00
35607;DHT22;21729;58.392;15.656;2022-09-17T02:52:20;9.70;1.00
35607;DHT22;21729;58.392;15.656;2022-09-17T02:54:53;9.70;1.00
35607;DHT22;21729;58.392;15.656;2022-09-17T02:57:31;9.80;1.00
35607;DHT22;21729;58.392;15.656;2022-09-17T03:00:04;9.70;1.00
35607;DHT22;21729;58.392;15.656;2022-09-17T03:02:38;9.80;1.00
35607;DHT22;21729;58.392;15.656;2022-09-17T03:05:08;9.80;99.90
35607;DHT22;21729;58.392;15.656;2022-09-17T03:07:36;9.80;99.90
35607;DHT22;21729;58.392;15.656;2022-09-17T03:10:04;9.80;99.90
35607;DHT22;21729;58.392;15.656;2022-09-17T03:12:31;9.80;99.90
35607;DHT22;21729;58.392;15.656;2022-09-17T03:14:58;9.80;1.40
35607;DHT22;21729;58.392;15.656;2022-09-17T03:17:26;9.80;99.90
35607;DHT22;21729;58.392;15.656;2022-09-17T03:19:54;9.80;99.90
35607;DHT22;21729;58.392;15.656;2022-09-17T03:22:21;9.90;99.90
35607;DHT22;21729;58.392;15.656;2022-09-17T03:24:48;9.90;99.90
35607;DHT22;21729;58.392;15.656;2022-09-17T03:27:15;9.90;99.90
35607;DHT22;21729;58.392;15.656;2022-09-17T03:29:42;9.80;99.90
35607;DHT22;21729;58.392;15.656;2022-09-17T03:32:09;9.80;99.90
35607;DHT22;21729;58.392;15.656;2022-09-17T03:34:36;9.70;99.90
35607;DHT22;21729;58.392;15.656;2022-09-17T03:37:05;9.50;1.00
35607;DHT22;21729;58.392;15.656;2022-09-17T03:39:32;9.50;1.00
35607;DHT22;21729;58.392;15.656;2022-09-17T03:41:59;9.40;1.00
35607;DHT22;21729;58.392;15.656;2022-09-17T03:44:26;9.30;1.00
35607;DHT22;21729;58.392;15.656;2022-09-17T03:46:54;9.30;1.00
35607;DHT22;21729;58.392;15.656;2022-09-17T03:49:21;9.20;1.00
35607;DHT22;21729;58.392;15.656;2022-09-17T03:51:49;9.20;1.00
35607;DHT22;21729;58.392;15.656;2022-09-17T03:54:18;9.20;1.00
35607;DHT22;21729;58.392;15.656;2022-09-17T03:56:45;9.20;1.00
35607;DHT22;21729;58.392;15.656;2022-09-17T03:59:13;9.30;1.00
35607;DHT22;21729;58.392;15.656;2022-09-17T04:01:40;9.30;1.00
35607;DHT22;21729;58.392;15.656;2022-09-17T04:04:07;9.30;1.00
35607;DHT22;21729;58.392;15.656;2022-09-17T04:06:34;9.40;1.00
35607;DHT22;21729;58.392;15.656;2022-09-17T04:09:02;9.40;1.00
35607;DHT22;21729;58.392;15.656;2022-09-17T04:11:31;9.50;1.00
35607;DHT22;21729;58.392;15.656;2022-09-17T04:13:58;9.50;1.00
35607;DHT22;21729;58.392;15.656;2022-09-17T04:16:25;9.60;1.00
35607;DHT22;21729;58.392;15.656;2022-09-17T04:18:52;9.60;99.90
35607;DHT22;21729;58.392;15.656;2022-09-17T04:21:19;9.60;1.00
35607;DHT22;21729;58.392;15.656;2022-09-17T04:23:47;9.60;1.00
35607;DHT22;21729;58.392;15.656;2022-09-17T04:26:14;9.50;1.00
35607;DHT22;21729;58.392;15.656;2022-09-17T04:28:42;9.60;1.00
35607;DHT22;21729;58.392;15.656;2022-09-17T04:31:09;9.60;99.90
35607;DHT22;21729;58.392;15.656;2022-09-17T04:33:36;9.60;99.90
35607;DHT22;21729;58.392;15.656;2022-09-17T04:36:04;9.50;99.90
35607;DHT22;21729;58.392;15.656;2022-09-17T04:38:31;9.50;1.00
35607;DHT22;21729;58.392;15.656;2022-09-17T04:40:59;9.50;1.00
35607;DHT22;21729;58.392;15.656;2022-09-17T04:43:26;9.50;99.90
35607;DHT22;21729;58.392;15.656;2022-09-17T04:45:55;9.50;99.90
35607;DHT22;21729;58.392;15.656;2022-09-17T04:48:22;9.50;99.90
35607;DHT22;21729;58.392;15.656;2022-09-17T04:50:49;9.50;99.90
35607;DHT22;21729;58.392;15.656;2022-09-17T04:53:16;9.50;99.90
35607;DHT22;21729;58.392;15.656;2022-09-17T04:55:43;9.60;99.90
35607;DHT22;21729;58.392;15.656;2022-09-17T04:58:10;9.60;99.90
35607;DHT22;21729;58.392;15.656;2022-09-17T05:00:37;9.60;99.90
35607;DHT22;21729;58.392;15.656;2022-09-17T05:03:07;9.70;99.90
35607;DHT22;21729;58.392;15.656;2022-09-17T05:05:35;9.70;99.90
35607;DHT22;21729;58.392;15.656;2022-09-17T05:08:02;9.90;99.90
35607;DHT22;21729;58.392;15.656;2022-09-17T05:10:29;9.90;99.90
35607;DHT22;21729;58.392;15.656;2022-09-17T05:12:56;9.90;99.90
35607;DHT22;21729;58.392;15.656;2022-09-17T05:15:24;9.90;99.90
35607;DHT22;21729;58.392;15.656;2022-09-17T05:17:52;9.90;99.90
35607;DHT22;21729;58.392;15.656;2022-09-17T05:20:21;10.00;99.90
35607;DHT22;21729;58.392;15.656;2022-09-17T05:22:49;10.00;99.90
35607;DHT22;21729;58.392;15.656;2022-09-17T05:25:18;10.00;99.90
35607;DHT22;21729;58.392;15.656;2022-09-17T05:27:48;10.10;99.90
35607;DHT22;21729;58.392;15.656;2022-09-17T05:30:16;10.10;99.90
35607;DHT22;21729;58.392;15.656;2022-09-17T05:32:43;10.10;99.90
35607;DHT22;21729;58.392;15.656;2022-09-17T05:35:10;10.10;99.90
35607;DHT22;21729;58.392;15.656;2022-09-17T05:37:39;10.20;99.90
35607;DHT22;21729;58.392;15.656;2022-09-17T05:40:07;10.30;99.90
35607;DHT22;21729;58.392;15.656;2022-09-17T05:42:35;10.40;99.90
35607;DHT22;21729;58.392;15.656;2022-09-17T05:45:03;10.40;99.90
35607;DHT22;21729;58.392;15.656;2022-09-17T05:47:32;10.40;99.90
35607;DHT22;21729;58.392;15.656;2022-09-17T05:50:00;10.40;99.90
35607;DHT22;21729;58.392;15.656;2022-09-17T05:52:27;10.40;99.90
35607;DHT22;21729;58.392;15.656;2022-09-17T05:54:56;10.40;99.90
35607;DHT22;21729;58.392;15.656;2022-09-17T05:57:24;10.40;99.90
35607;DHT22;21729;58.392;15.656;2022-09-17T05:59:51;10.50;99.90
35607;DHT22;21729;58.392;15.656;2022-09-17T06:02:18;10.40;99.90
35607;DHT22;21729;58.392;15.656;2022-09-17T06:04:45;10.50;99.90
35607;DHT22;21729;58.392;15.656;2022-09-17T06:07:15;10.60;99.90
35607;DHT22;21729;58.392;15.656;2022-09-17T06:09:42;10.70;99.90
35607;DHT22;21729;58.392;15.656;2022-09-17T06:12:11;10.80;99.90
35607;DHT22;21729;58.392;15.656;2022-09-17T06:14:38;10.90;99.90
35607;DHT22;21729;58.392;15.656;2022-09-17T06:17:06;10.90;99.90
35607;DHT22;21729;58.392;15.656;2022-09-17T06:19:34;11.00;90.30
35607;DHT22;21729;58.392;15.656;2022-09-17T06:22:02;11.20;71.60
35607;DHT22;21729;58.392;15.656;2022-09-17T06:24:30;11.40;54.70
35607;DHT22;21729;58.392;15.656;2022-09-17T06:27:02;11.20;37.60
35607;DHT22;21729;58.392;15.656;2022-09-17T06:29:32;10.90;44.70
35607;DHT22;21729;58.392;15.656;2022-09-17T06:32:00;11.00;87.20
35607;DHT22;21729;58.392;15.656;2022-09-17T06:34:27;11.20;26.60
35607;DHT22;21729;58.392;15.656;2022-09-17T06:36:54;11.50;9.70
35607;DHT22;21729;58.392;15.656;2022-09-17T06:39:21;11.40;12.20
35607;DHT22;21729;58.392;15.656;2022-09-17T06:41:48;11.40;52.20
35607;DHT22;21729;58.392;15.656;2022-09-17T06:44:16;11.30;99.90
35607;DHT22;21729;58.392;15.656;2022-09-17T06:46:44;11.20;95.80
35607;DHT22;21729;58.392;15.656;2022-09-17T06:49:11;11.40;43.80
35607;DHT22;21729;58.392;15.656;2022-09-17T06:51:38;11.30;1.00
35607;DHT22;21729;58.392;15.656;2022-09-17T06:54:05;11.30;1.00
35607;DHT22;21729;58.392;15.656;2022-09-17T06:56:32;11.30;14.90
35607;DHT22;21729;58.392;15.656;2022-09-17T06:59:00;11.50;1.00
35607;DHT22;21729;58.392;15.656;2022-09-17T07:01:27;11.60;1.00
35607;DHT22;21729;58.392;15.656;2022-09-17T07:03:55;11.80;1.00
35607;DHT22;21729;58.392;15.656;2022-09-17T07:06:22;12.30;1.00
35607;DHT22;21729;58.392;15.656;2022-09-17T07:08:49;12.70;1.00
35607;DHT22;21729;58.392;15.656;2022-09-17T07:11:16;13.70;99.90
35607;DHT22;21729;58.392;15.656;2022-09-17T07:13:43;14.80;99.90
35607;DHT22;21729;58.392;15.656;2022-09-17T07:16:12;14.60;99.90
35607;DHT22;21729;58.392;15.656;2022-09-17T07:18:39;15.50;99.90
35607;DHT22;21729;58.392;15.656;2022-09-17T07:21:09;16.90;1.00
35607;DHT22;21729;58.392;15.656;2022-09-17T07:23:36;17.30;1.00
35607;DHT22;21729;58.392;15.656;2022-09-17T07:26:05;17.90;1.00
35607;DHT22;21729;58.392;15.656;2022-09-17T07:28:33;19.00;99.90
35607;DHT22;21729;58.392;15.656;2022-09-17T07:31:03;19.50;99.90
35607;DHT22;21729;58.392;15.656;2022-09-17T07:33:31;19.30;99.90
35607;DHT22;21729;58.392;15.656;2022-09-17T07:35:59;19.50;99.90
35607;DHT22;21729;58.392;15.656;2022-09-17T07:38:29;19.60;99.90
35607;DHT22;21729;58.392;15.656;2022-09-17T07:40:57;20.20;99.90
35607;DHT22;21729;58.392;15.656;2022-09-17T07:43:25;19.80;99.90
35607;DHT22;21729;58.392;15.656;2022-09-17T07:45:52;19.60;99.90
35607;DHT22;21729;58.392;15.656;2022-09-17T07:48:20;20.30;99.90
35607;DHT22;21729;58.392;15.656;2022-09-17T07:50:47;20.00;99.90
35607;DHT22;21729;58.392;15.656;2022-09-17T07:53:15;19.40;99.90
35607;DHT22;21729;58.392;15.656;2022-09-17T07:55:50;20.60;99.90
35607;DHT22;21729;58.392;15.656;2022-09-17T07:58:17;19.80;99.90
35607;DHT22;21729;58.392;15.656;2022-09-17T08:00:45;19.20;99.90
35607;DHT22;21729;58.392;15.656;2022-09-17T08:03:12;19.60;99.90
35607;DHT22;21729;58.392;15.656;2022-09-17T08:05:39;19.70;99.90
35607;DHT22;21729;58.392;15.656;2022-09-17T08:08:06;19.80;99.90
35607;DHT22;21729;58.392;15.656;2022-09-17T08:10:33;20.00;99.90
35607;DHT22;21729;58.392;15.656;2022-09-17T08:13:02;19.10;99.90
35607;DHT22;21729;58.392;15.656;2022-09-17T08:15:29;20.40;99.90
35607;DHT22;21729;58.392;15.656;2022-09-17T08:17:56;21.30;99.90
35607;DHT22;21729;58.392;15.656;2022-09-17T08:20:23;21.30;99.90
35607;DHT22;21729;58.392;15.656;2022-09-17T08:22:57;22.00;99.90
35607;DHT22;21729;58.392;15.656;2022-09-17T08:25:24;21.70;99.90
35607;DHT22;21729;58.392;15.656;2022-09-17T08:27:52;21.70;99.90
35607;DHT22;21729;58.392;15.656;2022-09-17T08:30:21;21.70;99.90
35607;DHT22;21729;58.392;15.656;2022-09-17T08:32:48;21.90;99.90
35607;DHT22;21729;58.392;15.656;2022-09-17T08:35:15;22.30;99.90
35607;DHT22;21729;58.392;15.656;2022-09-17T08:37:43;22.30;99.90
35607;DHT22;21729;58.392;15.656;2022-09-17T08:40:16;22.40;99.90
35607;DHT22;21729;58.392;15.656;2022-09-17T08:42:51;21.20;99.90
35607;DHT22;21729;58.392;15.656;2022-09-17T08:45:24;20.90;99.90
35607;DHT22;21729;58.392;15.656;2022-09-17T08:47:55;22.00;99.90
35607;DHT22;21729;58.392;15.656;2022-09-17T08:50:29;21.70;99.90
35607;DHT22;21729;58.392;15.656;2022-09-17T08:53:30;21.80;99.90
35607;DHT22;21729;58.392;15.656;2022-09-17T08:56:09;21.50;99.90
35607;DHT22;21729;58.392;15.656;2022-09-17T08:58:51;21.20;99.90
35607;DHT22;21729;58.392;15.656;2022-09-17T09:01:28;22.40;99.90
35607;DHT22;21729;58.392;15.656;2022-09-17T09:04:24;22.00;99.90
35607;DHT22;21729;58.392;15.656;2022-09-17T09:07:02;22.50;99.90
35607;DHT22;21729;58.392;15.656;2022-09-17T09:09:34;20.00;99.90
35607;DHT22;21729;58.392;15.656;2022-09-17T09:12:03;19.10;99.90
35607;DHT22;21729;58.392;15.656;2022-09-17T09:14:34;16.90;99.90
35607;DHT22;21729;58.392;15.656;2022-09-17T09:17:07;16.70;99.90
35607;DHT22;21729;58.392;15.656;2022-09-17T09:19:41;19.60;99.90
35607;DHT22;21729;58.392;15.656;2022-09-17T09:22:32;18.70;99.90
35607;DHT22;21729;58.392;15.656;2022-09-17T09:25:11;20.20;99.90
35607;DHT22;21729;58.392;15.656;2022-09-17T09:27:46;22.30;99.90
35607;DHT22;21729;58.392;15.656;2022-09-17T09:30:17;18.90;99.90
35607;DHT22;21729;58.392;15.656;2022-09-17T09:32:56;17.60;99.90
35607;DHT22;21729;58.392;15.656;2022-09-17T09:35:26;16.60;1.00
35607;DHT22;21729;58.392;15.656;2022-09-17T09:37:56;16.20;1.00
35607;DHT22;21729;58.392;15.656;2022-09-17T09:40:32;15.90;1.00
35607;DHT22;21729;58.392;15.656;2022-09-17T09:43:07;17.50;1.00
35607;DHT22;21729;58.392;15.656;2022-09-17T09:45:44;16.70;1.00
35607;DHT22;21729;58.392;15.656;2022-09-17T09:48:19;15.80;1.00
35607;DHT22;21729;58.392;15.656;2022-09-17T09:50:59;15.60;1.00
35607;DHT22;21729;58.392;15.656;2022-09-17T09:53:41;15.40;1.00
35607;DHT22;21729;58.392;15.656;2022-09-17T09:56:30;18.50;1.00
35607;DHT22;21729;58.392;15.656;2022-09-17T09:58:59;17.50;1.00
35607;DHT22;21729;58.392;15.656;2022-09-17T10:01:28;17.10;1.00
35607;DHT22;21729;58.392;15.656;2022-09-17T10:03:57;17.10;1.00
35607;DHT22;21729;58.392;15.656;2022-09-17T10:06:27;18.00;1.00
35607;DHT22;21729;58.392;15.656;2022-09-17T10:09:09;17.50;1.00
35607;DHT22;21729;58.392;15.656;2022-09-17T10:11:36;16.60;1.00
35607;DHT22;21729;58.392;15.656;2022-09-17T10:14:18;16.00;1.00
35607;DHT22;21729;58.392;15.656;2022-09-17T10:16:47;16.30;1.00
35607;DHT22;21729;58.392;15.656;2022-09-17T10:19:20;16.70;1.00
35607;DHT22;21729;58.392;15.656;2022-09-17T10:21:50;16.50;1.00
35607;DHT22;21729;58.392;15.656;2022-09-17T10:24:22;15.90;1.00
35607;DHT22;21729;58.392;15.656;2022-09-17T10:26:50;16.40;1.00
35607;DHT22;21729;58.392;15.656;2022-09-17T10:29:18;16.60;1.00
35607;DHT22;21729;58.392;15.656;2022-09-17T10:31:47;16.70;1.00
35607;DHT22;21729;58.392;15.656;2022-09-17T10:34:21;16.20;1.00
35607;DHT22;21729;58.392;15.656;2022-09-17T10:36:49;15.90;1.00
35607;DHT22;21729;58.392;15.656;2022-09-17T10:39:32;15.90;1.00
35607;DHT22;21729;58.392;15.656;2022-09-17T10:42:02;16.50;1.00
35607;DHT22;21729;58.392;15.656;2022-09-17T10:44:31;17.10;1.00
35607;DHT22;21729;58.392;15.656;2022-09-17T10:47:04;16.80;1.00
35607;DHT22;21729;58.392;15.656;2022-09-17T10:49:41;16.80;1.00
35607;DHT22;21729;58.392;15.656;2022-09-17T10:52:13;16.90;1.00
35607;DHT22;21729;58.392;15.656;2022-09-17T10:55:17;17.30;1.00
35607;DHT22;21729;58.392;15.656;2022-09-17T10:58:02;17.20;1.00
35607;DHT22;21729;58.392;15.656;2022-09-17T11:00:41;17.50;1.00
35607;DHT22;21729;58.392;15.656;2022-09-17T11:09:35;17.30;1.00
35607;DHT22;21729;58.392;15.656;2022-09-17T11:12:19;17.10;1.00
35607;DHT22;21729;58.392;15.656;2022-09-17T11:14:50;17.20;1.00
35607;DHT22;21729;58.392;15.656;2022-09-17T11:17:35;16.90;1.00
35607;DHT22;21729;58.392;15.656;2022-09-17T11:20:11;17.20;1.00
35607;DHT22;21729;58.392;15.656;2022-09-17T11:22:49;16.70;1.00
35607;DHT22;21729;58.392;15.656;2022-09-17T11:25:40;16.20;1.00
35607;DHT22;21729;58.392;15.656;2022-09-17T11:28:30;16.50;1.00
35607;DHT22;21729;58.392;15.656;2022-09-17T11:31:08;16.80;1.00
35607;DHT22;21729;58.392;15.656;2022-09-17T11:33:55;17.00;1.00
35607;DHT22;21729;58.392;15.656;2022-09-17T11:36:29;17.00;1.00
35607;DHT22;21729;58.392;15.656;2022-09-17T11:39:03;16.50;1.00
35607;DHT22;21729;58.392;15.656;2022-09-17T11:41:41;16.20;1.00
35607;DHT22;21729;58.392;15.656;2022-09-17T11:44:13;15.80;1.00
35607;DHT22;21729;58.392;15.656;2022-09-17T11:46:44;15.80;1.00
35607;DHT22;21729;58.392;15.656;2022-09-17T11:49:19;16.20;1.00
35607;DHT22;21729;58.392;15.656;2022-09-17T11:51:51;16.40;1.00
35607;DHT22;21729;58.392;15.656;2022-09-17T11:54:22;16.80;1.00
35607;DHT22;21729;58.392;15.656;2022-09-17T11:56:53;16.40;1.00
35607;DHT22;21729;58.392;15.656;2022-09-17T11:59:28;15.90;1.00
35607;DHT22;21729;58.392;15.656;2022-09-17T12:02:00;15.80;1.00
35607;DHT22;21729;58.392;15.656;2022-09-17T12:04:46;15.80;1.00
35607;DHT22;21729;58.392;15.656;2022-09-17T12:07:27;15.70;1.00
35607;DHT22;21729;58.392;15.656;2022-09-17T12:09:59;15.70;1.00
35607;DHT22;21729;58.392;15.656;2022-09-17T12:12:33;15.60;1.00
35607;DHT22;21729;58.392;15.656;2022-09-17T12:15:12;15.90;1.00
35607;DHT22;21729;58.392;15.656;2022-09-17T12:17:43;15.80;1.00
35607;DHT22;21729;58.392;15.656;2022-09-17T12:20:20;16.00;1.00
35607;DHT22;21729;58.392;15.656;2022-09-17T12:22:50;16.20;1.00
35607;DHT22;21729;58.392;15.656;2022-09-17T12:25:18;16.30;1.00
35607;DHT22;21729;58.392;15.656;2022-09-17T12:27:53;16.30;1.00
35607;DHT22;21729;58.392;15.656;2022-09-17T12:30:22;16.20;1.00
35607;DHT22;21729;58.392;15.656;2022-09-17T12:33:15;16.00;1.00
35607;DHT22;21729;58.392;15.656;2022-09-17T12:39:28;15.40;1.00
35607;DHT22;21729;58.392;15.656;2022-09-17T12:42:03;15.40;1.00
35607;DHT22;21729;58.392;15.656;2022-09-17T12:44:58;15.20;1.00
35607;DHT22;21729;58.392;15.656;2022-09-17T12:50:37;15.30;1.00
35607;DHT22;21729;58.392;15.656;2022-09-17T12:53:17;15.30;1.00
35607;DHT22;21729;58.392;15.656;2022-09-17T12:56:01;15.10;1.00
35607;DHT22;21729;58.392;15.656;2022-09-17T12:58:47;15.10;1.00
35607;DHT22;21729;58.392;15.656;2022-09-17T13:01:23;15.00;1.00
35607;DHT22;21729;58.392;15.656;2022-09-17T13:03:56;14.90;1.00
35607;DHT22;21729;58.392;15.656;2022-09-17T13:06:55;14.90;1.00
35607;DHT22;21729;58.392;15.656;2022-09-17T13:09:44;14.80;1.00
35607;DHT22;21729;58.392;15.656;2022-09-17T13:12:20;15.00;1.00
35607;DHT22;21729;58.392;15.656;2022-09-17T13:15:04;15.00;1.00
35607;DHT22;21729;58.392;15.656;2022-09-17T13:17:41;15.00;1.00
35607;DHT22;21729;58.392;15.656;2022-09-17T13:20:14;15.10;1.00
35607;DHT22;21729;58.392;15.656;2022-09-17T13:22:44;15.00;1.00
35607;DHT22;21729;58.392;15.656;2022-09-17T13:25:14;15.20;1.00
35607;DHT22;21729;58.392;15.656;2022-09-17T13:27:43;15.30;1.00
35607;DHT22;21729;58.392;15.656;2022-09-17T13:30:11;15.30;1.00
35607;DHT22;21729;58.392;15.656;2022-09-17T13:32:51;15.40;1.00
35607;DHT22;21729;58.392;15.656;2022-09-17T13:35:48;15.70;1.00
35607;DHT22;21729;58.392;15.656;2022-09-17T13:38:17;15.60;1.00
35607;DHT22;21729;58.392;15.656;2022-09-17T13:40:45;15.50;1.00
35607;DHT22;21729;58.392;15.656;2022-09-17T13:43:15;15.40;1.00
35607;DHT22;21729;58.392;15.656;2022-09-17T13:46:09;15.50;1.00
35607;DHT22;21729;58.392;15.656;2022-09-17T13:48:46;15.50;1.00
35607;DHT22;21729;58.392;15.656;2022-09-17T13:54:35;15.40;1.00
35607;DHT22;21729;58.392;15.656;2022-09-17T13:57:13;15.30;1.00
35607;DHT22;21729;58.392;15.656;2022-09-17T13:59:56;15.20;1.00
35607;DHT22;21729;58.392;15.656;2022-09-17T14:02:38;15.20;1.00
35607;DHT22;21729;58.392;15.656;2022-09-17T14:05:35;15.20;1.00
35607;DHT22;21729;58.392;15.656;2022-09-17T14:08:11;15.30;1.00
35607;DHT22;21729;58.392;15.656;2022-09-17T14:10:43;15.30;1.00
35607;DHT22;21729;58.392;15.656;2022-09-17T14:13:32;15.10;1.00
35607;DHT22;21729;58.392;15.656;2022-09-17T14:16:24;15.00;1.00
35607;DHT22;21729;58.392;15.656;2022-09-17T14:18:56;15.00;1.00
35607;DHT22;21729;58.392;15.656;2022-09-17T14:21:31;14.90;1.00
35607;DHT22;21729;58.392;15.656;2022-09-17T14:24:00;15.00;1.00
35607;DHT22;21729;58.392;15.656;2022-09-17T14:26:44;15.00;1.00
35607;DHT22;21729;58.392;15.656;2022-09-17T14:29:23;15.10;1.00
35607;DHT22;21729;58.392;15.656;2022-09-17T14:31:56;15.10;1.00
35607;DHT22;21729;58.392;15.656;2022-09-17T14:34:26;15.00;1.00
35607;DHT22;21729;58.392;15.656;2022-09-17T14:36:56;15.10;1.00
35607;DHT22;21729;58.392;15.656;2022-09-17T14:39:26;15.00;1.00
35607;DHT22;21729;58.392;15.656;2022-09-17T14:41:55;15.00;1.00
35607;DHT22;21729;58.392;15.656;2022-09-17T14:44:25;15.00;1.00
35607;DHT22;21729;58.392;15.656;2022-09-17T14:47:00;15.00;1.00
35607;DHT22;21729;58.392;15.656;2022-09-17T14:49:31;15.00;1.00
35607;DHT22;21729;58.392;15.656;2022-09-17T14:52:01;14.90;1.00
35607;DHT22;21729;58.392;15.656;2022-09-17T14:54:30;14.90;1.00
35607;DHT22;21729;58.392;15.656;2022-09-17T14:56:59;14.70;1.00
35607;DHT22;21729;58.392;15.656;2022-09-17T14:59:48;14.70;1.00
35607;DHT22;21729;58.392;15.656;2022-09-17T15:02:35;14.90;1.00
35607;DHT22;21729;58.392;15.656;2022-09-17T15:05:16;14.90;1.00
35607;DHT22;21729;58.392;15.656;2022-09-17T15:07:46;14.90;1.00
35607;DHT22;21729;58.392;15.656;2022-09-17T15:10:14;14.90;1.00
35607;DHT22;21729;58.392;15.656;2022-09-17T15:12:43;15.00;1.00
35607;DHT22;21729;58.392;15.656;2022-09-17T15:15:17;14.90;1.00
35607;DHT22;21729;58.392;15.656;2022-09-17T15:17:46;15.00;1.00
35607;DHT22;21729;58.392;15.656;2022-09-17T15:20:17;14.90;1.00
35607;DHT22;21729;58.392;15.656;2022-09-17T15:22:51;14.90;1.00
35607;DHT22;21729;58.392;15.656;2022-09-17T15:25:22;14.90;1.00
35607;DHT22;21729;58.392;15.656;2022-09-17T15:27:54;14.80;1.00
35607;DHT22;21729;58.392;15.656;2022-09-17T15:30:24;14.70;13.90
35607;DHT22;21729;58.392;15.656;2022-09-17T15:32:53;14.80;1.40
35607;DHT22;21729;58.392;15.656;2022-09-17T15:35:23;14.70;11.70
35607;DHT22;21729;58.392;15.656;2022-09-17T15:37:55;14.70;4.30
35607;DHT22;21729;58.392;15.656;2022-09-17T15:40:25;14.60;1.70
35607;DHT22;21729;58.392;15.656;2022-09-17T15:43:02;14.60;22.70
35607;DHT22;21729;58.392;15.656;2022-09-17T15:45:30;14.50;66.70
35607;DHT22;21729;58.392;15.656;2022-09-17T15:48:02;14.40;72.40
35607;DHT22;21729;58.392;15.656;2022-09-17T15:50:31;14.30;99.90
35607;DHT22;21729;58.392;15.656;2022-09-17T15:53:13;14.20;99.90
35607;DHT22;21729;58.392;15.656;2022-09-17T15:55:42;14.10;99.90
35607;DHT22;21729;58.392;15.656;2022-09-17T15:58:22;14.00;99.90
35607;DHT22;21729;58.392;15.656;2022-09-17T16:04:17;13.80;99.90
35607;DHT22;21729;58.392;15.656;2022-09-17T16:06:58;13.80;99.90
35607;DHT22;21729;58.392;15.656;2022-09-17T16:09:44;13.70;99.90
35607;DHT22;21729;58.392;15.656;2022-09-17T16:12:14;13.80;99.90
35607;DHT22;21729;58.392;15.656;2022-09-17T16:14:46;13.80;99.90
35607;DHT22;21729;58.392;15.656;2022-09-17T16:17:28;13.80;99.90
35607;DHT22;21729;58.392;15.656;2022-09-17T16:19:57;13.80;99.90
35607;DHT22;21729;58.392;15.656;2022-09-17T16:22:25;13.80;99.90
35607;DHT22;21729;58.392;15.656;2022-09-17T16:24:55;13.80;99.90